Time;durP1;ratioP1;P1;durP2;ratioP2;P2;SDS_P1;SDS_P2;PMS_P1;PMS_P2;Temp;Humidity;BMP_temperature;BMP_pressure;BME280_temperature;BME280_humidity;BME280_pressure;Samples;Min_cycle;Max_cycle;Signal;HPM_P1;HPM_P2
2022/11/11 00:00:37;;;;;;;9.85;3.15;;;10.50;86.10;;;;;;5054648;28;20025;-73
2022/11/11 00:03:03;;;;;;;11.52;4.05;;;10.50;85.30;;;;;;5054539;28;20032;-73
2022/11/11 00:05:29;;;;;;;6.10;3.08;;;10.50;85.70;;;;;;5036600;28;20052;-73
2022/11/11 00:07:58;;;;;;;7.50;3.20;;;10.50;85.80;;;;;;5020506;28;20033;-73
2022/11/11 00:10:25;;;;;;;10.85;3.72;;;10.40;86.10;;;;;;5054557;28;20035;-73
2022/11/11 00:12:51;;;;;;;8.65;3.45;;;10.40;86.30;;;;;;5054410;28;20085;-73
2022/11/11 00:15:17;;;;;;;9.25;3.80;;;10.40;86.20;;;;;;5054349;28;20029;-73
2022/11/11 00:26:06;;;;;;;11.65;4.35;;;10.30;87.00;;;;;;5054074;28;20101;-73
2022/11/11 00:28:31;;;;;;;10.98;3.60;;;10.30;86.90;;;;;;5054235;28;20040;-73
2022/11/11 00:31:08;;;;;;;11.18;4.00;;;10.30;87.00;;;;;;5054048;28;20037;-73
2022/11/11 00:33:34;;;;;;;9.48;3.72;;;10.30;86.80;;;;;;5054180;28;20021;-73
2022/11/11 00:35:59;;;;;;;8.30;3.63;;;10.40;86.70;;;;;;5036466;28;20065;-73
2022/11/11 00:38:44;;;;;;;9.95;3.85;;;10.40;86.60;;;;;;5054093;28;20037;-73
2022/11/11 00:41:11;;;;;;;8.35;4.10;;;10.50;86.70;;;;;;5053891;28;20022;-73
2022/11/11 00:43:36;;;;;;;8.40;3.70;;;10.60;86.50;;;;;;5053811;28;20022;-73
2022/11/11 00:51:31;;;;;;;8.52;4.38;;;10.70;86.20;;;;;;5053890;28;20051;-73
2022/11/11 00:53:57;;;;;;;7.65;4.05;;;10.70;86.30;;;;;;5036177;28;20045;-73
2022/11/11 00:56:23;;;;;;;10.70;4.60;;;10.70;86.40;;;;;;5053664;28;20033;-73
2022/11/11 00:58:49;;;;;;;9.77;4.18;;;10.70;86.50;;;;;;5053587;28;20018;-73
2022/11/11 01:01:14;;;;;;;10.48;5.03;;;10.80;86.60;;;;;;5053525;28;20036;-73
2022/11/11 01:03:40;;;;;;;10.30;4.63;;;10.80;86.70;;;;;;5053519;28;20029;-73
2022/11/11 01:06:06;;;;;;;11.23;4.82;;;10.70;86.80;;;;;;5036037;28;20551;-73
2022/11/11 01:08:32;;;;;;;13.30;4.50;;;10.80;86.90;;;;;;5053352;28;20060;-73
2022/11/11 01:10:58;;;;;;;11.90;5.20;;;10.80;86.80;;;;;;5053381;28;20034;-73
2022/11/11 01:13:32;;;;;;;11.43;5.15;;;10.80;86.80;;;;;;5053367;28;20021;-73
2022/11/11 01:16:06;;;;;;;10.70;5.30;;;10.90;86.90;;;;;;5052943;28;20076;-73
2022/11/11 01:18:31;;;;;;;14.63;6.28;;;10.80;87.00;;;;;;5035599;28;20025;-73
2022/11/11 01:21:11;;;;;;;11.73;5.95;;;10.90;87.40;;;;;;5053379;28;20029;-73
2022/11/11 01:23:38;;;;;;;13.95;5.40;;;10.90;87.50;;;;;;5053411;28;20033;-73
2022/11/11 01:26:08;;;;;;;14.27;5.95;;;10.90;87.70;;;;;;5053034;28;20053;-73
2022/11/11 01:28:34;;;;;;;11.68;5.80;;;10.80;88.00;;;;;;5035867;28;20021;-73
2022/11/11 01:31:01;;;;;;;13.52;6.15;;;10.80;87.90;;;;;;5035724;28;20036;-73
2022/11/11 01:33:27;;;;;;;15.27;6.30;;;10.80;88.30;;;;;;5035992;28;20029;-73
2022/11/11 01:35:52;;;;;;;12.38;6.13;;;10.80;88.60;;;;;;5053176;28;20033;-73
2022/11/11 01:38:18;;;;;;;11.85;6.40;;;10.80;88.70;;;;;;5019192;28;20030;-73
2022/11/11 01:40:46;;;;;;;13.32;6.07;;;10.80;88.80;;;;;;5053055;28;20030;-73
2022/11/11 01:43:12;;;;;;;14.98;6.80;;;10.80;88.80;;;;;;5053054;28;20018;-73
2022/11/11 01:45:49;;;;;;;14.23;6.45;;;10.80;89.10;;;;;;5035490;28;20036;-73
2022/11/11 01:51:27;;;;;;;13.80;6.53;;;10.70;89.40;;;;;;5053112;28;20047;-73
2022/11/11 01:53:59;;;;;;;13.48;5.95;;;10.70;89.60;;;;;;5035564;28;20025;-73
2022/11/11 01:56:25;;;;;;;14.73;7.25;;;10.70;89.90;;;;;;5052955;28;20030;-73
2022/11/11 01:58:54;;;;;;;13.82;6.45;;;10.70;89.70;;;;;;5052901;28;20022;-73
2022/11/11 02:01:19;;;;;;;13.63;6.97;;;10.70;89.70;;;;;;5035373;28;20017;-73
2022/11/11 02:05:40;;;;;;;12.85;6.68;;;10.70;89.90;;;;;;5052826;28;20042;-73
2022/11/11 02:06:33;;;;;;;17.80;7.20;;;10.70;90.00;;;;;;5052830;28;20488;-73
2022/11/11 02:08:59;;;;;;;16.27;7.07;;;10.70;90.10;;;;;;5052710;28;20094;-73
2022/11/11 02:16:56;;;;;;;14.65;5.90;;;10.60;90.30;;;;;;5038135;28;20381;-73
2022/11/11 02:19:35;;;;;;;16.42;6.70;;;10.60;90.40;;;;;;5035321;28;20026;-73
2022/11/11 02:22:03;;;;;;;13.48;6.35;;;10.60;90.40;;;;;;5052738;28;20073;-73
2022/11/11 02:24:30;;;;;;;14.23;6.50;;;10.60;90.40;;;;;;5052653;28;20022;-73
2022/11/11 02:26:57;;;;;;;13.02;6.35;;;10.60;90.40;;;;;;5052497;28;20536;-73
2022/11/11 02:29:24;;;;;;;17.30;7.38;;;10.60;90.30;;;;;;5038552;28;20039;-73
2022/11/11 02:31:50;;;;;;;12.85;6.68;;;10.70;90.30;;;;;;5039065;28;20029;-73
2022/11/11 02:34:16;;;;;;;18.95;7.30;;;10.70;90.20;;;;;;5038871;28;20035;-73
2022/11/11 02:36:42;;;;;;;16.15;6.95;;;10.70;90.20;;;;;;5038720;28;20044;-73
2022/11/11 02:39:08;;;;;;;17.10;7.20;;;10.80;90.20;;;;;;5038654;28;20025;-73
2022/11/11 02:44:18;;;;;;;16.45;6.82;;;10.80;90.00;;;;;;5041420;28;20041;-73
2022/11/11 02:46:43;;;;;;;14.95;7.00;;;10.80;90.00;;;;;;5022102;28;20030;-73
2022/11/11 02:49:09;;;;;;;16.08;7.05;;;10.80;90.00;;;;;;5055982;28;20026;-73
2022/11/11 02:51:34;;;;;;;13.25;6.63;;;10.80;90.10;;;;;;5038539;28;20033;-73
2022/11/11 02:54:01;;;;;;;14.43;7.30;;;10.80;90.10;;;;;;5038434;28;20021;-73
2022/11/11 02:59:12;;;;;;;15.07;7.47;;;10.80;90.10;;;;;;5056019;28;20044;-73
2022/11/11 03:01:38;;;;;;;17.33;6.85;;;10.80;90.10;;;;;;5038208;28;20029;-73
2022/11/11 03:04:04;;;;;;;17.35;7.50;;;10.70;90.20;;;;;;5038125;28;20057;-73
2022/11/11 03:06:29;;;;;;;17.23;7.53;;;10.70;90.20;;;;;;5055647;28;20033;-72
2022/11/11 03:08:55;;;;;;;12.15;6.97;;;10.70;90.20;;;;;;5055582;28;20081;-73
2022/11/11 03:11:26;;;;;;;16.23;7.13;;;10.70;90.20;;;;;;5021783;28;20154;-73
2022/11/11 03:13:56;;;;;;;13.32;6.68;;;10.80;90.20;;;;;;5039168;28;20029;-73
2022/11/11 03:19:06;;;;;;;14.60;7.30;;;10.70;90.20;;;;;;5040958;28;20064;-73
2022/11/11 03:21:32;;;;;;;14.85;7.57;;;10.70;90.30;;;;;;5055390;28;20045;-73
2022/11/11 03:23:58;;;;;;;16.05;7.07;;;10.70;90.30;;;;;;5037956;28;20030;-73
2022/11/11 03:26:23;;;;;;;15.07;7.78;;;10.70;90.30;;;;;;5055019;28;20076;-73
2022/11/11 03:28:49;;;;;;;13.30;6.75;;;10.70;90.30;;;;;;5055259;28;20033;-73
2022/11/11 03:31:15;;;;;;;14.40;7.28;;;10.60;90.20;;;;;;5055253;28;20057;-73
2022/11/11 03:33:41;;;;;;;17.92;7.53;;;10.70;90.30;;;;;;5055218;28;20026;-73
2022/11/11 03:36:07;;;;;;;14.55;7.38;;;10.60;90.30;;;;;;5037610;28;20063;-73
2022/11/11 03:38:33;;;;;;;14.68;7.03;;;10.60;90.30;;;;;;5055093;28;20026;-73
2022/11/11 03:40:58;;;;;;;16.00;7.13;;;10.60;90.40;;;;;;5054225;28;20029;-73
2022/11/11 03:43:27;;;;;;;14.25;7.22;;;10.60;90.40;;;;;;5021173;28;20030;-73
2022/11/11 03:45:56;;;;;;;15.98;6.90;;;10.60;90.30;;;;;;5054950;28;20024;-73
2022/11/11 03:48:22;;;;;;;17.80;7.53;;;10.60;90.40;;;;;;5054890;28;20028;-73
2022/11/11 03:50:48;;;;;;;15.00;7.38;;;10.60;90.40;;;;;;5054837;28;20045;-73
2022/11/11 03:53:15;;;;;;;19.58;7.68;;;10.50;90.40;;;;;;5054804;28;20032;-73
2022/11/11 03:55:41;;;;;;;15.95;7.82;;;10.50;90.40;;;;;;5054767;28;20026;-73
2022/11/11 03:58:07;;;;;;;19.65;8.40;;;10.50;90.40;;;;;;5054621;28;20061;-73
2022/11/11 04:00:33;;;;;;;17.50;8.70;;;10.50;90.40;;;;;;5037145;28;20030;-73
2022/11/11 04:11:50;;;;;;;20.05;9.55;;;10.50;90.40;;;;;;5039804;28;20392;-73
2022/11/11 04:16:59;;;;;;;19.73;9.50;;;10.50;90.40;;;;;;5025820;28;20048;-73
2022/11/11 04:22:09;;;;;;;18.85;9.65;;;10.40;90.50;;;;;;5039713;28;20052;-73
2022/11/11 04:27:20;;;;;;;20.33;9.07;;;10.50;90.60;;;;;;5054104;28;20099;-73
2022/11/11 04:29:50;;;;;;;19.65;9.05;;;10.40;90.50;;;;;;5054112;28;20025;-73
2022/11/11 04:35:06;;;;;;;22.73;9.73;;;10.40;90.60;;;;;;5054092;28;20029;-73
2022/11/11 04:37:33;;;;;;;23.98;9.80;;;10.40;90.60;;;;;;5054020;28;20029;-73
2022/11/11 04:42:43;;;;;;;23.67;10.38;;;10.40;90.70;;;;;;5054019;28;20037;-73
2022/11/11 04:48:00;;;;;;;26.13;10.73;;;10.40;90.60;;;;;;5054058;28;20048;-73
2022/11/11 04:50:37;;;;;;;28.73;11.73;;;10.40;90.50;;;;;;5052718;28;20044;-73
2022/11/11 04:53:05;;;;;;;24.60;9.90;;;10.40;90.60;;;;;;5053745;28;20025;-73
2022/11/11 04:58:20;;;;;;;22.17;9.93;;;10.30;90.60;;;;;;5053631;28;20037;-72
2022/11/11 05:00:45;;;;;;;24.95;10.05;;;10.20;91.20;;;;;;5053769;28;20028;-73
2022/11/11 05:03:15;;;;;;;18.33;8.45;;;10.30;90.70;;;;;;5036175;28;20029;-73
2022/11/11 05:09:00;;;;;;;18.00;8.35;;;10.20;90.70;;;;;;5053623;28;20040;-73
2022/11/11 05:11:29;;;;;;;18.10;8.13;;;10.30;90.60;;;;;;5053473;28;20021;-73
2022/11/11 05:22:16;;;;;;;20.90;9.70;;;10.30;90.40;;;;;;5053559;28;20036;-73
2022/11/11 05:27:26;;;;;;;17.77;8.05;;;10.20;90.60;;;;;;5038283;28;20053;-73
2022/11/11 05:29:52;;;;;;;14.30;7.32;;;10.10;90.10;;;;;;5053205;28;20038;-73
2022/11/11 05:32:19;;;;;;;17.00;7.32;;;10.00;90.00;;;;;;5052931;28;20087;-73
2022/11/11 05:34:45;;;;;;;15.65;7.53;;;9.90;90.10;;;;;;5053192;28;20029;-73
2022/11/11 05:37:11;;;;;;;17.85;7.05;;;9.90;90.50;;;;;;5053048;28;20036;-73
2022/11/11 05:39:36;;;;;;;14.45;6.45;;;9.80;90.00;;;;;;5035684;28;20009;-73
2022/11/11 05:42:03;;;;;;;16.90;7.43;;;9.70;89.80;;;;;;5053066;28;20497;-73
2022/11/11 05:44:28;;;;;;;21.38;8.27;;;9.70;89.70;;;;;;5053199;28;20025;-73
2022/11/11 05:46:54;;;;;;;14.13;6.10;;;9.70;89.70;;;;;;5035808;28;20042;-73
2022/11/11 05:49:20;;;;;;;14.10;6.43;;;9.60;89.70;;;;;;5052972;28;20032;-73
2022/11/11 05:51:46;;;;;;;15.77;7.00;;;9.50;89.90;;;;;;5035513;28;20022;-73
2022/11/11 05:54:12;;;;;;;22.55;7.63;;;9.40;90.00;;;;;;5035657;28;20081;-73
2022/11/11 05:56:38;;;;;;;16.30;7.22;;;9.40;90.00;;;;;;5035488;28;20041;-73
2022/11/11 05:59:05;;;;;;;14.63;7.03;;;9.40;90.10;;;;;;5053063;28;20030;-73
2022/11/11 06:01:31;;;;;;;17.92;6.85;;;9.40;90.20;;;;;;5052904;28;20052;-73
2022/11/11 06:03:56;;;;;;;15.90;6.65;;;9.40;90.10;;;;;;5037937;28;20116;-73
2022/11/11 06:06:22;;;;;;;14.18;6.22;;;9.40;90.10;;;;;;5056624;28;20034;-73
2022/11/11 06:08:47;;;;;;;17.33;7.05;;;9.30;90.10;;;;;;5022793;28;20033;-73
2022/11/11 06:11:13;;;;;;;13.90;6.30;;;9.20;90.20;;;;;;5056847;28;20092;-73
2022/11/11 06:13:39;;;;;;;12.75;5.57;;;9.20;90.10;;;;;;5039202;28;20053;-73
2022/11/11 06:16:05;;;;;;;16.08;5.57;;;9.10;90.20;;;;;;5056606;28;20026;-73
2022/11/11 06:18:30;;;;;;;13.60;5.88;;;9.10;90.30;;;;;;5022848;28;20093;-73
2022/11/11 06:20:57;;;;;;;13.07;5.50;;;9.10;90.30;;;;;;5022802;28;20030;-73
2022/11/11 06:23:24;;;;;;;12.25;4.97;;;9.00;90.20;;;;;;5022813;28;20089;-73
2022/11/11 06:28:35;;;;;;;12.77;5.25;;;8.90;90.30;;;;;;5056717;28;20079;-73
2022/11/11 06:31:01;;;;;;;13.52;6.30;;;8.80;90.40;;;;;;5056415;28;20056;-73
2022/11/11 06:33:26;;;;;;;10.20;5.25;;;8.70;90.50;;;;;;5056199;28;20025;-73
2022/11/11 06:35:52;;;;;;;12.45;5.60;;;8.70;90.80;;;;;;5056278;28;20068;-73
2022/11/11 06:38:18;;;;;;;11.05;4.85;;;8.60;90.90;;;;;;5022410;28;20030;-73
2022/11/11 06:40:44;;;;;;;13.43;5.47;;;8.60;91.00;;;;;;5038631;28;20108;-73
2022/11/11 06:43:10;;;;;;;9.98;4.90;;;8.50;91.00;;;;;;5056129;28;20072;-73
2022/11/11 06:45:36;;;;;;;13.68;4.88;;;8.50;91.40;;;;;;5056085;28;20021;-73
2022/11/11 06:48:02;;;;;;;9.30;4.57;;;8.50;91.10;;;;;;5056050;28;20026;-73
2022/11/11 06:50:28;;;;;;;13.05;4.95;;;8.50;91.10;;;;;;5056009;28;20025;-73
2022/11/11 06:52:54;;;;;;;11.05;5.13;;;8.50;91.10;;;;;;5038658;28;20035;-73
2022/11/11 06:55:20;;;;;;;10.95;5.22;;;8.50;91.20;;;;;;5055938;28;20053;-73
2022/11/11 06:57:46;;;;;;;11.32;4.18;;;8.50;91.10;;;;;;5038401;28;20026;-73
2022/11/11 07:00:12;;;;;;;10.07;4.13;;;8.40;91.10;;;;;;5038392;28;20048;-73
2022/11/11 07:02:38;;;;;;;11.82;4.20;;;8.40;91.20;;;;;;5055792;28;20075;-73
2022/11/11 07:05:04;;;;;;;12.52;4.65;;;8.40;91.10;;;;;;5038426;28;20022;-73
2022/11/11 07:07:30;;;;;;;12.90;4.60;;;8.40;91.20;;;;;;5055647;28;20030;-74
2022/11/11 07:09:56;;;;;;;8.80;3.58;;;8.40;91.20;;;;;;5055672;28;20029;-73
2022/11/11 07:12:22;;;;;;;9.40;3.28;;;8.40;91.20;;;;;;5055735;28;20034;-74
2022/11/11 07:14:49;;;;;;;11.45;3.63;;;8.40;91.20;;;;;;5054286;28;20433;-73
2022/11/11 07:17:14;;;;;;;9.50;4.15;;;8.40;91.20;;;;;;5055459;28;20036;-73
2022/11/11 07:19:40;;;;;;;8.65;3.88;;;8.40;91.20;;;;;;5037969;28;20026;-73
2022/11/11 07:22:05;;;;;;;10.07;4.68;;;8.50;91.20;;;;;;5055434;28;20021;-73
2022/11/11 07:24:31;;;;;;;10.82;4.53;;;8.50;91.10;;;;;;5055385;28;20044;-73
2022/11/11 07:26:58;;;;;;;8.32;3.60;;;8.50;91.10;;;;;;5037604;28;20057;-73
2022/11/11 07:29:23;;;;;;;8.45;4.00;;;8.50;91.10;;;;;;5021614;28;20089;-73
2022/11/11 07:31:50;;;;;;;7.47;3.92;;;8.50;91.40;;;;;;5037751;28;20030;-73
2022/11/11 07:34:16;;;;;;;8.98;3.78;;;8.50;91.10;;;;;;5038038;28;20033;-73
2022/11/11 07:36:41;;;;;;;7.65;3.55;;;8.50;91.00;;;;;;5055087;28;20053;-74
2022/11/11 07:39:07;;;;;;;8.27;3.63;;;8.60;91.00;;;;;;5055265;28;20033;-74
2022/11/11 07:41:32;;;;;;;10.05;3.83;;;8.50;91.00;;;;;;5021236;28;20025;-74
2022/11/11 07:43:58;;;;;;;9.23;3.38;;;8.60;91.00;;;;;;5055021;28;20400;-73
2022/11/11 07:46:24;;;;;;;6.47;3.50;;;8.60;90.90;;;;;;5037644;28;20030;-74
2022/11/11 07:48:50;;;;;;;10.75;4.07;;;8.60;90.80;;;;;;5037409;28;20036;-73
2022/11/11 07:51:15;;;;;;;6.75;3.15;;;8.60;90.80;;;;;;5037589;28;20038;-73
2022/11/11 07:53:41;;;;;;;8.35;3.20;;;8.60;90.80;;;;;;5037406;28;20056;-74
2022/11/11 07:56:07;;;;;;;7.93;3.75;;;8.70;90.80;;;;;;5054839;28;20037;-74
2022/11/11 07:58:32;;;;;;;7.22;3.22;;;8.70;90.80;;;;;;5037239;28;20044;-73
2022/11/11 08:00:59;;;;;;;10.43;3.85;;;8.70;91.00;;;;;;5054843;28;20543;-74
2022/11/11 08:03:25;;;;;;;7.75;3.38;;;8.80;90.60;;;;;;5037241;28;20030;-73
2022/11/11 08:05:50;;;;;;;6.93;3.63;;;8.80;90.50;;;;;;5037086;28;20056;-73
2022/11/11 08:08:16;;;;;;;6.82;2.92;;;8.80;90.50;;;;;;5020639;28;20055;-73
2022/11/11 08:10:42;;;;;;;7.93;2.95;;;8.90;90.50;;;;;;5037086;28;20029;-73
2022/11/11 08:15:55;;;;;;;7.63;3.20;;;8.90;90.40;;;;;;5054579;28;20040;-73
2022/11/11 08:18:21;;;;;;;8.50;3.65;;;9.00;90.30;;;;;;5036787;28;20033;-74
2022/11/11 08:20:46;;;;;;;6.78;3.20;;;9.00;90.30;;;;;;5037089;28;20029;-74
2022/11/11 08:23:13;;;;;;;6.45;3.45;;;9.00;90.10;;;;;;5036847;28;20025;-74
2022/11/11 08:25:39;;;;;;;7.47;3.05;;;9.10;90.10;;;;;;5053829;28;20045;-74
2022/11/11 08:28:05;;;;;;;8.52;3.20;;;9.20;90.50;;;;;;5020678;28;20026;-73
2022/11/11 08:30:32;;;;;;;8.23;3.40;;;9.30;89.70;;;;;;5054286;28;20056;-74
2022/11/11 08:32:57;;;;;;;9.77;3.17;;;9.30;89.30;;;;;;5036626;28;20029;-74
2022/11/11 08:35:23;;;;;;;6.50;2.88;;;9.40;89.40;;;;;;5054046;28;20029;-73
2022/11/11 08:37:49;;;;;;;6.63;3.15;;;9.50;88.50;;;;;;5020224;28;20037;-74
2022/11/11 08:40:18;;;;;;;7.45;2.83;;;9.60;88.50;;;;;;5036625;28;20051;-74
2022/11/11 08:42:44;;;;;;;7.65;2.70;;;9.70;87.90;;;;;;5053937;28;20022;-74
2022/11/11 08:45:10;;;;;;;5.43;2.85;;;9.90;87.70;;;;;;5036418;28;20021;-73
2022/11/11 08:47:36;;;;;;;7.18;3.00;;;10.00;87.20;;;;;;5053994;28;20052;-74
2022/11/11 08:50:02;;;;;;;5.95;2.83;;;10.00;86.90;;;;;;5053803;28;20056;-73
2022/11/11 08:52:28;;;;;;;6.50;3.13;;;10.10;86.50;;;;;;5053689;28;20021;-74
2022/11/11 08:54:54;;;;;;;10.50;3.10;;;10.10;85.90;;;;;;5036383;28;20041;-73
2022/11/11 08:57:19;;;;;;;6.65;2.53;;;10.10;85.80;;;;;;5053586;28;20059;-74
2022/11/11 08:59:45;;;;;;;8.55;3.30;;;10.20;86.10;;;;;;5053629;28;20081;-74
2022/11/11 09:02:11;;;;;;;6.05;2.55;;;10.20;85.90;;;;;;5036206;28;20025;-74
2022/11/11 09:04:38;;;;;;;6.68;3.00;;;10.20;85.60;;;;;;5053566;28;20034;-74
2022/11/11 09:07:05;;;;;;;6.63;2.75;;;10.30;85.50;;;;;;5019929;28;20037;-74
2022/11/11 09:09:30;;;;;;;5.38;2.80;;;10.30;85.10;;;;;;5053408;28;20029;-74
2022/11/11 09:11:56;;;;;;;7.72;2.60;;;10.30;85.30;;;;;;5036003;28;20033;-74
2022/11/11 09:14:22;;;;;;;6.18;2.50;;;10.30;85.30;;;;;;5019552;28;20032;-74
2022/11/11 09:16:47;;;;;;;6.03;2.42;;;10.30;84.80;;;;;;5035906;28;20056;-73
2022/11/11 09:19:13;;;;;;;6.05;2.67;;;10.30;85.50;;;;;;5053365;28;20036;-73
2022/11/11 09:21:38;;;;;;;8.63;3.20;;;10.40;85.40;;;;;;5035868;28;20029;-74
2022/11/11 09:24:05;;;;;;;5.47;3.13;;;10.40;85.20;;;;;;5035994;28;20056;-74
2022/11/11 09:26:30;;;;;;;4.90;2.25;;;10.40;85.20;;;;;;5035531;28;20049;-73
2022/11/11 09:28:56;;;;;;;5.32;2.28;;;10.40;84.90;;;;;;5053237;28;20048;-73
2022/11/11 09:31:22;;;;;;;4.70;2.63;;;10.40;85.30;;;;;;5053322;28;20033;-73
2022/11/11 09:33:49;;;;;;;5.75;2.92;;;10.50;85.10;;;;;;5053180;28;20033;-73
2022/11/11 09:36:14;;;;;;;5.75;2.75;;;10.50;85.00;;;;;;5053121;28;20041;-73
2022/11/11 09:38:40;;;;;;;6.63;2.83;;;10.60;85.00;;;;;;5052438;28;20018;-73
2022/11/11 09:41:20;;;;;;;7.90;2.90;;;10.60;83.80;;;;;;5019202;28;20124;-74
2022/11/11 09:43:58;;;;;;;6.63;2.25;;;10.70;84.80;;;;;;5053128;28;20033;-74
2022/11/11 09:46:32;;;;;;;4.53;2.28;;;10.60;84.80;;;;;;5053109;28;20056;-73
2022/11/11 09:49:06;;;;;;;5.93;2.92;;;10.70;84.50;;;;;;5053117;28;20033;-73
2022/11/11 09:51:38;;;;;;;5.07;2.88;;;10.70;84.20;;;;;;5035477;28;20025;-73
2022/11/11 09:54:10;;;;;;;5.43;2.63;;;10.60;83.80;;;;;;5053086;28;20029;-73
2022/11/11 09:56:37;;;;;;;4.72;2.28;;;10.60;84.60;;;;;;5052941;28;20026;-74
2022/11/11 09:59:34;;;;;;;5.88;2.55;;;10.60;84.40;;;;;;5052875;28;20028;-73
2022/11/11 10:02:00;;;;;;;4.68;2.75;;;10.60;84.60;;;;;;5052668;28;20080;-74
2022/11/11 10:04:33;;;;;;;5.97;2.63;;;10.60;85.30;;;;;;5052927;28;20085;-73
2022/11/11 10:07:57;;;;;;;5.20;2.30;;;10.60;85.10;;;;;;5052945;28;20030;-73
2022/11/11 10:10:37;;;;;;;4.47;2.35;;;10.60;85.20;;;;;;5012540;28;20030;-74
2022/11/11 10:13:03;;;;;;;6.15;2.70;;;10.60;84.60;;;;;;5052824;28;20047;-73
2022/11/11 10:15:40;;;;;;;7.50;2.80;;;10.60;85.10;;;;;;5052794;28;20068;-73
2022/11/11 10:18:22;;;;;;;4.32;2.47;;;10.50;84.60;;;;;;5035283;28;20025;-74
2022/11/11 10:20:54;;;;;;;5.57;2.78;;;10.60;85.20;;;;;;5051771;28;20029;-73
2022/11/11 10:23:28;;;;;;;5.00;2.55;;;10.60;84.70;;;;;;5052789;28;20049;-73
2022/11/11 10:25:56;;;;;;;5.40;2.97;;;10.60;84.60;;;;;;5052589;28;20064;-73
2022/11/11 10:28:28;;;;;;;3.75;2.28;;;10.60;84.60;;;;;;5052681;28;20021;-73
2022/11/11 10:30:55;;;;;;;7.13;3.00;;;10.70;85.00;;;;;;5052699;28;20026;-73
2022/11/11 10:33:29;;;;;;;4.47;2.80;;;10.80;85.30;;;;;;5018978;28;20033;-73
2022/11/11 10:35:59;;;;;;;4.55;2.70;;;10.90;84.10;;;;;;5051735;28;20025;-73
2022/11/11 10:38:44;;;;;;;5.10;2.50;;;10.80;84.10;;;;;;5019107;28;20034;-73
2022/11/11 10:41:22;;;;;;;6.93;2.85;;;10.90;84.60;;;;;;5052613;28;20022;-74
2022/11/11 10:43:48;;;;;;;5.70;3.17;;;10.90;84.40;;;;;;5035080;28;20029;-74
2022/11/11 10:46:30;;;;;;;6.22;3.13;;;10.90;84.60;;;;;;5052529;28;20017;-74
2022/11/11 10:48:59;;;;;;;6.88;3.05;;;10.90;84.50;;;;;;5053234;28;20069;-73
2022/11/11 10:51:33;;;;;;;6.22;3.08;;;10.90;84.50;;;;;;5056007;28;20100;-73
2022/11/11 10:54:24;;;;;;;4.40;2.58;;;10.90;84.60;;;;;;5038571;28;20021;-73
2022/11/11 10:57:10;;;;;;;3.80;2.05;;;11.00;83.90;;;;;;5054785;28;20083;-73
2022/11/11 10:59:42;;;;;;;6.15;2.40;;;11.00;84.00;;;;;;5055998;28;20022;-73
2022/11/11 11:02:20;;;;;;;5.88;2.88;;;11.10;84.00;;;;;;5056068;28;20057;-73
2022/11/11 11:05:07;;;;;;;8.13;2.70;;;11.10;84.20;;;;;;5055794;28;20022;-73
2022/11/11 11:07:55;;;;;;;7.68;2.35;;;11.20;84.70;;;;;;5038065;28;20022;-73
2022/11/11 11:10:28;;;;;;;4.55;2.13;;;11.30;83.90;;;;;;5055675;28;20025;-73
2022/11/11 11:13:07;;;;;;;5.72;2.40;;;11.40;84.50;;;;;;5055681;28;20026;-73
2022/11/11 11:15:39;;;;;;;4.38;2.75;;;11.50;83.60;;;;;;5038031;28;20089;-73
2022/11/11 11:18:12;;;;;;;5.30;2.10;;;11.60;84.30;;;;;;5055532;28;20030;-73
2022/11/11 11:20:53;;;;;;;7.38;2.85;;;11.70;84.20;;;;;;5055691;28;20047;-73
2022/11/11 11:23:35;;;;;;;5.35;2.70;;;11.70;82.90;;;;;;5054480;28;20017;-73
2022/11/11 11:26:02;;;;;;;4.17;2.43;;;11.80;82.60;;;;;;5037633;28;20040;-73
2022/11/11 11:28:28;;;;;;;5.40;2.33;;;11.90;83.40;;;;;;5038192;28;20287;-73
2022/11/11 11:30:59;;;;;;;5.13;2.00;;;12.00;83.50;;;;;;5037924;28;20037;-73
2022/11/11 11:33:24;;;;;;;5.63;2.72;;;12.00;81.50;;;;;;5055343;28;20028;-73
2022/11/11 11:35:50;;;;;;;6.18;2.20;;;12.00;81.60;;;;;;5021467;28;20033;-73
2022/11/11 11:38:17;;;;;;;3.33;1.85;;;12.00;81.50;;;;;;5055077;28;20041;-73
2022/11/11 11:40:55;;;;;;;6.35;1.90;;;12.10;80.80;;;;;;5037987;28;20081;-73
2022/11/11 11:43:33;;;;;;;5.90;2.08;;;12.10;81.40;;;;;;5052275;28;20045;-73
2022/11/11 11:46:01;;;;;;;3.38;1.80;;;12.20;81.00;;;;;;5055082;28;20049;-73
2022/11/11 11:48:46;;;;;;;3.90;2.13;;;12.20;80.70;;;;;;5055000;28;20039;-73
2022/11/11 11:51:12;;;;;;;4.10;2.17;;;12.30;81.00;;;;;;5055112;28;20163;-73
2022/11/11 11:53:40;;;;;;;3.85;1.83;;;12.30;80.70;;;;;;5054832;28;20029;-73
2022/11/11 11:56:20;;;;;;;4.30;2.30;;;12.40;80.60;;;;;;5054759;28;20029;-73
2022/11/11 11:59:16;;;;;;;3.67;2.05;;;12.50;79.80;;;;;;5054976;28;20018;-73
2022/11/11 12:02:11;;;;;;;4.15;2.00;;;12.50;80.40;;;;;;5019142;28;20038;-73
2022/11/11 12:05:01;;;;;;;4.97;2.10;;;12.60;79.40;;;;;;5054807;28;20028;-73
2022/11/11 12:07:30;;;;;;;3.70;1.65;;;12.60;78.90;;;;;;5054601;28;20032;-73
2022/11/11 12:10:22;;;;;;;5.13;2.67;;;12.70;80.20;;;;;;5054584;28;20053;-73
2022/11/11 12:13:36;;;;;;;3.70;1.88;;;12.80;80.00;;;;;;5054741;28;20033;-73
2022/11/11 12:16:44;;;;;;;3.95;1.70;;;12.90;78.80;;;;;;4987841;28;20037;-73
2022/11/11 12:19:40;;;;;;;3.03;1.65;;;13.00;78.80;;;;;;5054371;28;20029;-73
2022/11/11 12:22:35;;;;;;;3.80;1.65;;;13.20;79.20;;;;;;5036951;28;20022;-73
2022/11/11 12:25:10;;;;;;;3.83;1.63;;;13.20;78.70;;;;;;5054325;28;20024;-73
2022/11/11 12:27:39;;;;;;;4.53;1.58;;;13.20;77.00;;;;;;5054089;28;20512;-73
2022/11/11 12:30:15;;;;;;;2.22;1.30;;;13.30;76.40;;;;;;5054178;28;20026;-73
2022/11/11 12:33:12;;;;;;;4.22;1.60;;;13.30;77.00;;;;;;5036649;28;20056;-74
2022/11/11 12:36:06;;;;;;;4.15;1.70;;;13.40;76.40;;;;;;5054260;28;20040;-74
2022/11/11 12:38:52;;;;;;;2.75;1.50;;;13.30;76.20;;;;;;5054060;28;20030;-74
2022/11/11 12:41:33;;;;;;;4.65;1.70;;;13.30;76.40;;;;;;5036541;28;20017;-73
2022/11/11 12:44:07;;;;;;;3.97;1.60;;;13.40;76.90;;;;;;5053987;28;20060;-73
2022/11/11 12:46:48;;;;;;;3.33;1.52;;;13.40;76.80;;;;;;5053861;28;20029;-73
2022/11/11 12:49:36;;;;;;;3.07;1.40;;;13.40;76.80;;;;;;5053900;28;20028;-73
2022/11/11 12:52:11;;;;;;;5.63;1.73;;;13.40;76.00;;;;;;5053877;28;20029;-73
2022/11/11 12:55:19;;;;;;;4.07;1.80;;;13.50;76.40;;;;;;5053821;28;20056;-73
2022/11/11 12:57:58;;;;;;;3.45;1.58;;;13.60;76.10;;;;;;5007549;28;20042;-73
2022/11/11 13:00:25;;;;;;;5.53;1.77;;;13.60;76.50;;;;;;5053832;28;20025;-73
2022/11/11 13:03:21;;;;;;;5.47;1.85;;;13.60;76.20;;;;;;5036254;28;20029;-74
2022/11/11 13:06:10;;;;;;;4.85;1.60;;;13.70;76.80;;;;;;5053762;28;20025;-74
2022/11/11 13:08:44;;;;;;;3.85;1.88;;;13.70;76.00;;;;;;5035942;28;20031;-74
2022/11/11 13:11:20;;;;;;;3.40;1.85;;;13.80;76.80;;;;;;5036028;28;20029;-74
2022/11/11 13:14:47;;;;;;;4.45;1.73;;;13.90;76.10;;;;;;5052567;28;20025;-74
2022/11/11 13:17:13;;;;;;;3.35;1.63;;;13.90;76.20;;;;;;4954019;29;20063;-74
2022/11/11 13:19:48;;;;;;;3.58;1.70;;;13.90;75.20;;;;;;4954201;29;20043;-74
2022/11/11 13:22:22;;;;;;;3.13;1.73;;;14.00;75.70;;;;;;5022651;28;20037;-74
2022/11/11 13:24:50;;;;;;;3.97;1.70;;;14.00;75.20;;;;;;5053201;28;20060;-73
2022/11/11 13:27:26;;;;;;;2.90;1.50;;;14.10;75.80;;;;;;5035634;28;20049;-74
2022/11/11 13:30:35;;;;;;;3.47;1.50;;;14.10;74.50;;;;;;5031500;28;20053;-74
2022/11/11 13:33:07;;;;;;;5.00;1.95;;;14.10;73.90;;;;;;5053272;28;20061;-74
2022/11/11 13:35:49;;;;;;;2.27;1.50;;;14.10;74.40;;;;;;5035643;28;20022;-73
2022/11/11 13:38:34;;;;;;;3.85;1.90;;;14.20;75.20;;;;;;5053264;28;20288;-74
2022/11/11 13:41:06;;;;;;;3.40;1.70;;;14.10;75.00;;;;;;5053149;28;20037;-74
2022/11/11 13:43:39;;;;;;;4.87;1.70;;;14.10;74.40;;;;;;5053164;28;20036;-74
2022/11/11 13:46:06;;;;;;;4.07;1.77;;;14.10;75.00;;;;;;5035759;28;20268;-73
2022/11/11 13:48:37;;;;;;;3.60;1.67;;;14.10;75.20;;;;;;5053084;28;20085;-73
2022/11/11 13:51:18;;;;;;;5.32;1.73;;;14.10;74.60;;;;;;5053081;28;20025;-74
2022/11/11 13:53:46;;;;;;;3.30;1.80;;;14.10;74.90;;;;;;5052988;28;20029;-73
2022/11/11 13:56:21;;;;;;;3.53;1.70;;;14.10;75.10;;;;;;5052928;28;20022;-74
2022/11/11 13:58:48;;;;;;;4.65;1.60;;;14.10;75.30;;;;;;5035538;28;20025;-74
2022/11/11 14:01:15;;;;;;;3.22;1.60;;;14.10;74.60;;;;;;5051942;28;20018;-74
2022/11/11 14:03:44;;;;;;;2.95;1.67;;;14.10;75.40;;;;;;5052835;28;20022;-74
2022/11/11 14:06:16;;;;;;;3.22;1.83;;;14.10;75.60;;;;;;5052747;28;20077;-74
2022/11/11 14:08:52;;;;;;;6.75;1.92;;;14.10;75.80;;;;;;5052805;28;20022;-74
2022/11/11 14:11:26;;;;;;;4.85;1.92;;;14.10;75.70;;;;;;5052891;28;20478;-73
2022/11/11 14:13:57;;;;;;;3.10;1.55;;;14.10;75.80;;;;;;5035271;28;20024;-74
2022/11/11 14:16:33;;;;;;;3.33;1.70;;;14.10;75.80;;;;;;5052754;28;20026;-74
2022/11/11 14:19:12;;;;;;;3.92;1.92;;;14.10;75.90;;;;;;5052713;28;20020;-74
2022/11/11 14:21:49;;;;;;;4.53;1.80;;;14.10;75.50;;;;;;5052789;28;20029;-73